sensor_id;sensor_type;location;lat;lon;timestamp;temperature;humidity
20498;DHT22;10407;53.238;10.448;2022-11-15T00:01:11;7.10;99.90
20498;DHT22;10407;53.238;10.448;2022-11-15T00:03:38;7.10;99.90
20498;DHT22;10407;53.238;10.448;2022-11-15T00:06:06;7.10;99.90
20498;DHT22;10407;53.238;10.448;2022-11-15T00:08:33;7.00;99.90
20498;DHT22;10407;53.238;10.448;2022-11-15T00:11:02;7.00;99.90
20498;DHT22;10407;53.238;10.448;2022-11-15T00:13:30;7.10;99.90
20498;DHT22;10407;53.238;10.448;2022-11-15T00:15:59;7.00;99.90
20498;DHT22;10407;53.238;10.448;2022-11-15T00:18:28;7.00;99.90
20498;DHT22;10407;53.238;10.448;2022-11-15T00:21:02;7.10;99.90
20498;DHT22;10407;53.238;10.448;2022-11-15T00:23:25;7.00;99.90
20498;DHT22;10407;53.238;10.448;2022-11-15T00:25:56;7.00;99.90
20498;DHT22;10407;53.238;10.448;2022-11-15T00:28:25;7.00;99.90
20498;DHT22;10407;53.238;10.448;2022-11-15T00:30:53;7.00;99.90
20498;DHT22;10407;53.238;10.448;2022-11-15T00:33:20;7.00;99.90
20498;DHT22;10407;53.238;10.448;2022-11-15T00:35:48;7.10;99.90
20498;DHT22;10407;53.238;10.448;2022-11-15T00:38:15;7.20;99.90
20498;DHT22;10407;53.238;10.448;2022-11-15T00:40:43;7.10;99.90
20498;DHT22;10407;53.238;10.448;2022-11-15T00:43:10;7.00;99.90
20498;DHT22;10407;53.238;10.448;2022-11-15T00:45:38;7.00;99.90
20498;DHT22;10407;53.238;10.448;2022-11-15T00:48:05;6.90;99.90
20498;DHT22;10407;53.238;10.448;2022-11-15T00:50:33;6.90;99.90
20498;DHT22;10407;53.238;10.448;2022-11-15T00:53:00;6.90;99.90
20498;DHT22;10407;53.238;10.448;2022-11-15T00:55:28;6.90;99.90
20498;DHT22;10407;53.238;10.448;2022-11-15T00:57:55;6.90;99.90
20498;DHT22;10407;53.238;10.448;2022-11-15T01:00:23;6.90;99.90
20498;DHT22;10407;53.238;10.448;2022-11-15T01:02:50;6.80;99.90
20498;DHT22;10407;53.238;10.448;2022-11-15T01:05:18;6.80;99.90
20498;DHT22;10407;53.238;10.448;2022-11-15T01:07:45;6.80;99.90
20498;DHT22;10407;53.238;10.448;2022-11-15T01:10:13;6.60;99.90
20498;DHT22;10407;53.238;10.448;2022-11-15T01:12:40;6.70;99.90
20498;DHT22;10407;53.238;10.448;2022-11-15T01:15:08;6.60;99.90
20498;DHT22;10407;53.238;10.448;2022-11-15T01:17:36;6.70;99.90
20498;DHT22;10407;53.238;10.448;2022-11-15T01:20:03;6.70;99.90
20498;DHT22;10407;53.238;10.448;2022-11-15T01:22:31;6.70;99.90
20498;DHT22;10407;53.238;10.448;2022-11-15T01:24:59;6.70;99.90
20498;DHT22;10407;53.238;10.448;2022-11-15T01:27:27;6.60;99.90
20498;DHT22;10407;53.238;10.448;2022-11-15T01:29:54;6.60;99.90
20498;DHT22;10407;53.238;10.448;2022-11-15T01:32:22;6.60;99.90
20498;DHT22;10407;53.238;10.448;2022-11-15T01:34:49;6.60;99.90
20498;DHT22;10407;53.238;10.448;2022-11-15T01:37:17;6.60;99.90
20498;DHT22;10407;53.238;10.448;2022-11-15T01:39:44;6.40;99.90
20498;DHT22;10407;53.238;10.448;2022-11-15T01:42:15;6.50;99.90
20498;DHT22;10407;53.238;10.448;2022-11-15T01:44:50;6.50;99.90
20498;DHT22;10407;53.238;10.448;2022-11-15T01:47:26;6.40;99.90
20498;DHT22;10407;53.238;10.448;2022-11-15T01:50:04;6.30;99.90
20498;DHT22;10407;53.238;10.448;2022-11-15T01:52:30;6.50;99.90
20498;DHT22;10407;53.238;10.448;2022-11-15T01:55:05;6.50;99.90
20498;DHT22;10407;53.238;10.448;2022-11-15T01:57:30;6.50;99.90
20498;DHT22;10407;53.238;10.448;2022-11-15T01:59:58;6.30;99.90
20498;DHT22;10407;53.238;10.448;2022-11-15T02:02:27;6.60;99.90
20498;DHT22;10407;53.238;10.448;2022-11-15T02:04:55;6.60;99.90
20498;DHT22;10407;53.238;10.448;2022-11-15T02:07:23;6.60;99.90
20498;DHT22;10407;53.238;10.448;2022-11-15T02:09:51;6.60;99.90
20498;DHT22;10407;53.238;10.448;2022-11-15T02:12:20;6.70;99.90
20498;DHT22;10407;53.238;10.448;2022-11-15T02:14:51;6.70;99.90
20498;DHT22;10407;53.238;10.448;2022-11-15T02:20:50;6.70;99.90
20498;DHT22;10407;53.238;10.448;2022-11-15T02:26:42;6.60;99.90
20498;DHT22;10407;53.238;10.448;2022-11-15T02:29:10;6.60;99.90
20498;DHT22;10407;53.238;10.448;2022-11-15T02:37:34;6.60;99.90
20498;DHT22;10407;53.238;10.448;2022-11-15T02:40:06;6.60;99.90
20498;DHT22;10407;53.238;10.448;2022-11-15T02:42:41;6.50;99.90
20498;DHT22;10407;53.238;10.448;2022-11-15T02:45:32;6.60;99.90
20498;DHT22;10407;53.238;10.448;2022-11-15T02:48:01;6.60;99.90
20498;DHT22;10407;53.238;10.448;2022-11-15T02:50:32;6.50;99.90
20498;DHT22;10407;53.238;10.448;2022-11-15T02:53:00;6.50;99.90
20498;DHT22;10407;53.238;10.448;2022-11-15T03:03:55;6.40;99.90
20498;DHT22;10407;53.238;10.448;2022-11-15T03:12:01;6.20;99.90
20498;DHT22;10407;53.238;10.448;2022-11-15T03:14:42;6.30;99.90
20498;DHT22;10407;53.238;10.448;2022-11-15T03:19:56;6.40;99.90
20498;DHT22;10407;53.238;10.448;2022-11-15T03:22:26;6.50;99.90
20498;DHT22;10407;53.238;10.448;2022-11-15T03:24:57;6.50;99.90
20498;DHT22;10407;53.238;10.448;2022-11-15T03:27:28;6.40;99.90
20498;DHT22;10407;53.238;10.448;2022-11-15T03:30:02;6.40;99.90
20498;DHT22;10407;53.238;10.448;2022-11-15T03:32:31;6.40;99.90
20498;DHT22;10407;53.238;10.448;2022-11-15T03:35:05;6.40;99.90
20498;DHT22;10407;53.238;10.448;2022-11-15T03:40:07;6.50;99.90
20498;DHT22;10407;53.238;10.448;2022-11-15T03:42:47;6.30;99.90
20498;DHT22;10407;53.238;10.448;2022-11-15T03:45:14;6.40;99.90
20498;DHT22;10407;53.238;10.448;2022-11-15T03:50:18;6.40;99.90
20498;DHT22;10407;53.238;10.448;2022-11-15T03:52:48;6.50;99.90
20498;DHT22;10407;53.238;10.448;2022-11-15T03:55:18;6.50;99.90
20498;DHT22;10407;53.238;10.448;2022-11-15T03:57:49;6.60;99.90
20498;DHT22;10407;53.238;10.448;2022-11-15T04:00:16;6.70;99.90
20498;DHT22;10407;53.238;10.448;2022-11-15T04:02:44;6.60;99.90
20498;DHT22;10407;53.238;10.448;2022-11-15T04:05:11;6.70;99.90
20498;DHT22;10407;53.238;10.448;2022-11-15T04:07:39;6.80;99.90
20498;DHT22;10407;53.238;10.448;2022-11-15T04:10:07;6.90;99.90
20498;DHT22;10407;53.238;10.448;2022-11-15T04:12:41;6.80;99.90
20498;DHT22;10407;53.238;10.448;2022-11-15T04:15:11;6.80;99.90
20498;DHT22;10407;53.238;10.448;2022-11-15T04:17:47;6.80;99.90
20498;DHT22;10407;53.238;10.448;2022-11-15T04:20:29;6.80;99.90
20498;DHT22;10407;53.238;10.448;2022-11-15T04:23:20;6.80;99.90
20498;DHT22;10407;53.238;10.448;2022-11-15T04:26:14;6.60;99.90
20498;DHT22;10407;53.238;10.448;2022-11-15T04:28:42;6.40;99.90
20498;DHT22;10407;53.238;10.448;2022-11-15T04:31:28;6.50;99.90
20498;DHT22;10407;53.238;10.448;2022-11-15T04:33:55;6.60;99.90
20498;DHT22;10407;53.238;10.448;2022-11-15T04:36:23;6.50;99.90
20498;DHT22;10407;53.238;10.448;2022-11-15T04:39:09;6.30;99.90
20498;DHT22;10407;53.238;10.448;2022-11-15T04:41:36;6.40;99.90
20498;DHT22;10407;53.238;10.448;2022-11-15T04:44:04;6.40;99.90
20498;DHT22;10407;53.238;10.448;2022-11-15T04:46:31;6.40;99.90
20498;DHT22;10407;53.238;10.448;2022-11-15T04:48:59;6.30;99.90
20498;DHT22;10407;53.238;10.448;2022-11-15T04:51:27;6.40;99.90
20498;DHT22;10407;53.238;10.448;2022-11-15T04:53:54;6.30;99.90
20498;DHT22;10407;53.238;10.448;2022-11-15T04:56:22;6.20;99.90
20498;DHT22;10407;53.238;10.448;2022-11-15T04:58:49;6.30;99.90
20498;DHT22;10407;53.238;10.448;2022-11-15T05:01:17;6.30;99.90
20498;DHT22;10407;53.238;10.448;2022-11-15T05:03:45;6.40;99.90
20498;DHT22;10407;53.238;10.448;2022-11-15T05:06:31;6.40;99.90
20498;DHT22;10407;53.238;10.448;2022-11-15T05:08:58;6.50;99.90
20498;DHT22;10407;53.238;10.448;2022-11-15T05:11:26;6.40;99.90
20498;DHT22;10407;53.238;10.448;2022-11-15T05:13:53;6.50;99.90
20498;DHT22;10407;53.238;10.448;2022-11-15T05:16:21;6.50;99.90
20498;DHT22;10407;53.238;10.448;2022-11-15T05:18:52;6.30;99.90
20498;DHT22;10407;53.238;10.448;2022-11-15T05:21:21;6.40;99.90
20498;DHT22;10407;53.238;10.448;2022-11-15T05:23:48;6.40;99.90
20498;DHT22;10407;53.238;10.448;2022-11-15T05:26:17;6.50;99.90
20498;DHT22;10407;53.238;10.448;2022-11-15T05:28:45;6.50;99.90
20498;DHT22;10407;53.238;10.448;2022-11-15T05:31:14;6.50;99.90
20498;DHT22;10407;53.238;10.448;2022-11-15T05:33:43;6.50;99.90
20498;DHT22;10407;53.238;10.448;2022-11-15T05:38:57;6.60;99.90
20498;DHT22;10407;53.238;10.448;2022-11-15T05:41:32;6.60;99.90
20498;DHT22;10407;53.238;10.448;2022-11-15T05:44:01;6.70;99.90
20498;DHT22;10407;53.238;10.448;2022-11-15T05:46:30;6.70;99.90
20498;DHT22;10407;53.238;10.448;2022-11-15T05:48:58;6.70;99.90
20498;DHT22;10407;53.238;10.448;2022-11-15T05:51:27;6.80;99.90
20498;DHT22;10407;53.238;10.448;2022-11-15T05:53:57;6.80;99.90
20498;DHT22;10407;53.238;10.448;2022-11-15T05:56:26;6.80;99.90
20498;DHT22;10407;53.238;10.448;2022-11-15T05:58:54;6.90;99.90
20498;DHT22;10407;53.238;10.448;2022-11-15T06:01:24;6.90;99.90
20498;DHT22;10407;53.238;10.448;2022-11-15T06:03:52;7.00;99.90
20498;DHT22;10407;53.238;10.448;2022-11-15T06:06:20;7.00;99.90
20498;DHT22;10407;53.238;10.448;2022-11-15T06:08:48;7.00;99.90
20498;DHT22;10407;53.238;10.448;2022-11-15T06:11:15;7.00;99.90
20498;DHT22;10407;53.238;10.448;2022-11-15T06:13:43;7.00;99.90
20498;DHT22;10407;53.238;10.448;2022-11-15T06:16:10;7.00;99.90
20498;DHT22;10407;53.238;10.448;2022-11-15T06:18:38;7.00;99.90
20498;DHT22;10407;53.238;10.448;2022-11-15T06:21:06;6.90;99.90
20498;DHT22;10407;53.238;10.448;2022-11-15T06:23:34;7.00;99.90
20498;DHT22;10407;53.238;10.448;2022-11-15T06:26:03;7.00;99.90
20498;DHT22;10407;53.238;10.448;2022-11-15T06:28:32;7.00;99.90
20498;DHT22;10407;53.238;10.448;2022-11-15T06:31:04;6.90;99.90
20498;DHT22;10407;53.238;10.448;2022-11-15T06:33:32;7.00;99.90
20498;DHT22;10407;53.238;10.448;2022-11-15T06:36:04;7.00;99.90
20498;DHT22;10407;53.238;10.448;2022-11-15T06:38:32;7.00;99.90
20498;DHT22;10407;53.238;10.448;2022-11-15T06:41:08;7.00;99.90
20498;DHT22;10407;53.238;10.448;2022-11-15T06:43:37;7.00;99.90
20498;DHT22;10407;53.238;10.448;2022-11-15T06:46:05;7.00;99.90
20498;DHT22;10407;53.238;10.448;2022-11-15T06:48:34;7.20;99.90
20498;DHT22;10407;53.238;10.448;2022-11-15T06:51:04;7.10;99.90
20498;DHT22;10407;53.238;10.448;2022-11-15T06:53:32;7.20;99.90
20498;DHT22;10407;53.238;10.448;2022-11-15T06:56:01;7.20;99.90
20498;DHT22;10407;53.238;10.448;2022-11-15T06:58:29;7.30;99.90
20498;DHT22;10407;53.238;10.448;2022-11-15T07:01:06;7.00;99.90
20498;DHT22;10407;53.238;10.448;2022-11-15T07:03:38;7.20;99.90
20498;DHT22;10407;53.238;10.448;2022-11-15T07:06:06;7.40;99.90
20498;DHT22;10407;53.238;10.448;2022-11-15T07:08:35;7.40;99.90
20498;DHT22;10407;53.238;10.448;2022-11-15T07:11:05;7.50;99.90
20498;DHT22;10407;53.238;10.448;2022-11-15T07:13:33;7.50;99.90
20498;DHT22;10407;53.238;10.448;2022-11-15T07:16:06;7.60;99.90
20498;DHT22;10407;53.238;10.448;2022-11-15T07:18:38;7.60;99.90
20498;DHT22;10407;53.238;10.448;2022-11-15T07:21:07;7.60;99.90
20498;DHT22;10407;53.238;10.448;2022-11-15T07:23:39;7.40;99.90
20498;DHT22;10407;53.238;10.448;2022-11-15T07:26:07;7.40;99.90
20498;DHT22;10407;53.238;10.448;2022-11-15T07:28:35;7.50;99.90
20498;DHT22;10407;53.238;10.448;2022-11-15T07:31:08;7.50;99.90
20498;DHT22;10407;53.238;10.448;2022-11-15T07:33:35;7.70;99.90
20498;DHT22;10407;53.238;10.448;2022-11-15T07:36:05;8.00;99.90
20498;DHT22;10407;53.238;10.448;2022-11-15T07:38:34;8.10;99.90
20498;DHT22;10407;53.238;10.448;2022-11-15T07:41:03;8.20;99.90
20498;DHT22;10407;53.238;10.448;2022-11-15T07:43:31;8.50;99.90
20498;DHT22;10407;53.238;10.448;2022-11-15T07:46:09;8.70;99.90
20498;DHT22;10407;53.238;10.448;2022-11-15T07:48:38;8.60;99.90
20498;DHT22;10407;53.238;10.448;2022-11-15T07:51:09;8.90;99.90
20498;DHT22;10407;53.238;10.448;2022-11-15T07:53:36;9.10;99.90
20498;DHT22;10407;53.238;10.448;2022-11-15T07:56:06;9.00;99.90
20498;DHT22;10407;53.238;10.448;2022-11-15T07:58:34;9.20;99.90
20498;DHT22;10407;53.238;10.448;2022-11-15T08:01:06;9.50;99.90
20498;DHT22;10407;53.238;10.448;2022-11-15T08:03:34;9.60;99.90
20498;DHT22;10407;53.238;10.448;2022-11-15T08:06:02;9.60;99.90
20498;DHT22;10407;53.238;10.448;2022-11-15T08:08:30;9.70;99.90
20498;DHT22;10407;53.238;10.448;2022-11-15T08:10:58;9.50;99.90
20498;DHT22;10407;53.238;10.448;2022-11-15T08:13:26;9.50;99.90
20498;DHT22;10407;53.238;10.448;2022-11-15T08:16:01;9.50;99.90
20498;DHT22;10407;53.238;10.448;2022-11-15T08:18:29;9.50;99.90
20498;DHT22;10407;53.238;10.448;2022-11-15T08:21:01;9.40;99.90
20498;DHT22;10407;53.238;10.448;2022-11-15T08:23:29;9.40;99.90
20498;DHT22;10407;53.238;10.448;2022-11-15T08:26:02;9.30;99.90
20498;DHT22;10407;53.238;10.448;2022-11-15T08:28:31;9.30;99.90
20498;DHT22;10407;53.238;10.448;2022-11-15T08:30:59;9.50;99.90
20498;DHT22;10407;53.238;10.448;2022-11-15T08:33:26;9.80;99.90
20498;DHT22;10407;53.238;10.448;2022-11-15T08:35:59;9.80;99.90
20498;DHT22;10407;53.238;10.448;2022-11-15T08:38:27;9.70;99.90
20498;DHT22;10407;53.238;10.448;2022-11-15T08:41:00;9.80;99.90
20498;DHT22;10407;53.238;10.448;2022-11-15T08:43:28;9.90;99.90
20498;DHT22;10407;53.238;10.448;2022-11-15T08:45:57;9.60;99.90
20498;DHT22;10407;53.238;10.448;2022-11-15T08:48:25;9.60;99.90
20498;DHT22;10407;53.238;10.448;2022-11-15T08:50:56;9.70;99.90
20498;DHT22;10407;53.238;10.448;2022-11-15T08:53:23;9.70;99.90
20498;DHT22;10407;53.238;10.448;2022-11-15T08:55:51;9.50;99.90
20498;DHT22;10407;53.238;10.448;2022-11-15T08:58:18;9.50;99.90
20498;DHT22;10407;53.238;10.448;2022-11-15T09:00:46;9.60;99.90
20498;DHT22;10407;53.238;10.448;2022-11-15T09:03:13;9.70;99.90
20498;DHT22;10407;53.238;10.448;2022-11-15T09:05:41;9.50;99.90
20498;DHT22;10407;53.238;10.448;2022-11-15T09:08:09;9.50;99.90
20498;DHT22;10407;53.238;10.448;2022-11-15T09:10:37;9.30;99.90
20498;DHT22;10407;53.238;10.448;2022-11-15T09:13:05;9.40;99.90
20498;DHT22;10407;53.238;10.448;2022-11-15T09:15:32;9.40;99.90
20498;DHT22;10407;53.238;10.448;2022-11-15T09:18:00;9.40;99.90
20498;DHT22;10407;53.238;10.448;2022-11-15T09:20:28;9.50;99.90
20498;DHT22;10407;53.238;10.448;2022-11-15T09:23:00;9.60;99.90
20498;DHT22;10407;53.238;10.448;2022-11-15T09:25:28;9.60;99.90
20498;DHT22;10407;53.238;10.448;2022-11-15T09:27:56;9.80;99.90
20498;DHT22;10407;53.238;10.448;2022-11-15T09:30:24;10.00;99.90
20498;DHT22;10407;53.238;10.448;2022-11-15T09:32:52;10.00;99.90
20498;DHT22;10407;53.238;10.448;2022-11-15T09:35:19;10.40;99.90
20498;DHT22;10407;53.238;10.448;2022-11-15T09:37:48;10.90;99.90
20498;DHT22;10407;53.238;10.448;2022-11-15T09:40:17;11.40;99.90
20498;DHT22;10407;53.238;10.448;2022-11-15T09:43:23;11.20;99.90
20498;DHT22;10407;53.238;10.448;2022-11-15T09:48:39;11.20;99.90
20498;DHT22;10407;53.238;10.448;2022-11-15T09:51:06;11.50;99.90
20498;DHT22;10407;53.238;10.448;2022-11-15T09:53:58;11.70;99.90
20498;DHT22;10407;53.238;10.448;2022-11-15T09:56:30;11.50;99.90
20498;DHT22;10407;53.238;10.448;2022-11-15T09:59:11;11.30;99.90
20498;DHT22;10407;53.238;10.448;2022-11-15T10:04:22;11.70;99.90
20498;DHT22;10407;53.238;10.448;2022-11-15T10:06:55;11.90;99.90
20498;DHT22;10407;53.238;10.448;2022-11-15T10:09:31;12.10;99.90
20498;DHT22;10407;53.238;10.448;2022-11-15T10:11:58;11.80;99.90
20498;DHT22;10407;53.238;10.448;2022-11-15T10:14:28;11.70;99.90
20498;DHT22;10407;53.238;10.448;2022-11-15T10:17:19;11.60;99.90
20498;DHT22;10407;53.238;10.448;2022-11-15T10:19:47;11.50;99.90
20498;DHT22;10407;53.238;10.448;2022-11-15T10:25:38;11.20;99.90
20498;DHT22;10407;53.238;10.448;2022-11-15T10:27:23;11.20;99.90
20498;DHT22;10407;53.238;10.448;2022-11-15T10:29:50;11.10;99.90
20498;DHT22;10407;53.238;10.448;2022-11-15T10:32:19;11.10;99.90
20498;DHT22;10407;53.238;10.448;2022-11-15T10:34:49;11.10;99.90
20498;DHT22;10407;53.238;10.448;2022-11-15T10:37:28;11.20;99.90
20498;DHT22;10407;53.238;10.448;2022-11-15T10:40:05;11.30;99.90
20498;DHT22;10407;53.238;10.448;2022-11-15T10:42:33;11.40;99.90
20498;DHT22;10407;53.238;10.448;2022-11-15T10:45:00;11.50;99.90
20498;DHT22;10407;53.238;10.448;2022-11-15T10:47:31;11.50;99.90
20498;DHT22;10407;53.238;10.448;2022-11-15T10:50:03;11.70;99.90
20498;DHT22;10407;53.238;10.448;2022-11-15T10:52:31;12.00;99.90
20498;DHT22;10407;53.238;10.448;2022-11-15T10:55:12;11.90;99.90
20498;DHT22;10407;53.238;10.448;2022-11-15T10:57:33;11.90;99.90
20498;DHT22;10407;53.238;10.448;2022-11-15T11:03:02;12.00;99.90
20498;DHT22;10407;53.238;10.448;2022-11-15T11:05:41;12.00;99.90
20498;DHT22;10407;53.238;10.448;2022-11-15T11:10:57;11.70;99.90
20498;DHT22;10407;53.238;10.448;2022-11-15T11:13:27;11.50;99.90
20498;DHT22;10407;53.238;10.448;2022-11-15T11:16:08;11.40;99.90
20498;DHT22;10407;53.238;10.448;2022-11-15T11:18:34;11.40;99.90
20498;DHT22;10407;53.238;10.448;2022-11-15T11:21:06;11.40;99.90
20498;DHT22;10407;53.238;10.448;2022-11-15T11:23:46;11.50;99.90
20498;DHT22;10407;53.238;10.448;2022-11-15T11:29:14;11.40;99.90
20498;DHT22;10407;53.238;10.448;2022-11-15T11:31:47;11.50;99.90
20498;DHT22;10407;53.238;10.448;2022-11-15T11:34:18;11.60;99.90
20498;DHT22;10407;53.238;10.448;2022-11-15T11:36:58;11.60;99.90
20498;DHT22;10407;53.238;10.448;2022-11-15T11:42:29;11.80;99.90
20498;DHT22;10407;53.238;10.448;2022-11-15T11:50:32;11.90;99.90
20498;DHT22;10407;53.238;10.448;2022-11-15T11:53:11;11.90;99.90
20498;DHT22;10407;53.238;10.448;2022-11-15T11:55:53;11.80;99.90
20498;DHT22;10407;53.238;10.448;2022-11-15T11:58:32;11.80;99.90
20498;DHT22;10407;53.238;10.448;2022-11-15T12:04:13;11.80;99.90
20498;DHT22;10407;53.238;10.448;2022-11-15T12:06:59;11.90;99.90
20498;DHT22;10407;53.238;10.448;2022-11-15T12:09:36;11.90;99.90
20498;DHT22;10407;53.238;10.448;2022-11-15T12:12:10;11.90;99.90
20498;DHT22;10407;53.238;10.448;2022-11-15T12:17:40;11.90;99.90
20498;DHT22;10407;53.238;10.448;2022-11-15T12:20:21;11.80;99.90
20498;DHT22;10407;53.238;10.448;2022-11-15T12:22:54;11.80;99.90
20498;DHT22;10407;53.238;10.448;2022-11-15T12:25:39;11.80;99.90
20498;DHT22;10407;53.238;10.448;2022-11-15T12:28:37;11.90;99.90
20498;DHT22;10407;53.238;10.448;2022-11-15T12:31:01;11.90;99.90
20498;DHT22;10407;53.238;10.448;2022-11-15T12:33:43;11.90;99.90
20498;DHT22;10407;53.238;10.448;2022-11-15T12:39:03;11.80;99.90
20498;DHT22;10407;53.238;10.448;2022-11-15T12:41:32;11.80;99.90
20498;DHT22;10407;53.238;10.448;2022-11-15T12:44:01;11.80;99.90
20498;DHT22;10407;53.238;10.448;2022-11-15T12:59:55;11.70;99.90
20498;DHT22;10407;53.238;10.448;2022-11-15T13:02:37;11.80;99.90
20498;DHT22;10407;53.238;10.448;2022-11-15T13:10:31;11.80;99.90
20498;DHT22;10407;53.238;10.448;2022-11-15T13:13:06;11.80;99.90
20498;DHT22;10407;53.238;10.448;2022-11-15T13:15:38;11.80;99.90
20498;DHT22;10407;53.238;10.448;2022-11-15T13:18:29;11.70;99.90
20498;DHT22;10407;53.238;10.448;2022-11-15T13:20:57;11.80;99.90
20498;DHT22;10407;53.238;10.448;2022-11-15T13:23:24;11.70;99.90
20498;DHT22;10407;53.238;10.448;2022-11-15T13:28:43;11.70;99.90
20498;DHT22;10407;53.238;10.448;2022-11-15T13:33:57;11.70;99.90
20498;DHT22;10407;53.238;10.448;2022-11-15T13:36:30;11.70;99.90
20498;DHT22;10407;53.238;10.448;2022-11-15T13:39:05;11.70;99.90
20498;DHT22;10407;53.238;10.448;2022-11-15T13:41:35;11.70;99.90
20498;DHT22;10407;53.238;10.448;2022-11-15T13:44:05;11.70;99.90
20498;DHT22;10407;53.238;10.448;2022-11-15T13:46:33;11.70;99.90
20498;DHT22;10407;53.238;10.448;2022-11-15T13:49:03;11.70;99.90
20498;DHT22;10407;53.238;10.448;2022-11-15T13:51:42;11.70;99.90
20498;DHT22;10407;53.238;10.448;2022-11-15T13:56:51;11.60;99.90
20498;DHT22;10407;53.238;10.448;2022-11-15T13:59:33;11.60;99.90
20498;DHT22;10407;53.238;10.448;2022-11-15T14:02:02;11.60;99.90
20498;DHT22;10407;53.238;10.448;2022-11-15T14:04:30;11.60;99.90
20498;DHT22;10407;53.238;10.448;2022-11-15T14:07:01;11.60;99.90
20498;DHT22;10407;53.238;10.448;2022-11-15T14:09:36;11.60;99.90
20498;DHT22;10407;53.238;10.448;2022-11-15T14:12:01;11.50;99.90
20498;DHT22;10407;53.238;10.448;2022-11-15T14:14:30;11.60;99.90
20498;DHT22;10407;53.238;10.448;2022-11-15T14:16:59;11.60;99.90
20498;DHT22;10407;53.238;10.448;2022-11-15T14:22:23;11.60;99.90
20498;DHT22;10407;53.238;10.448;2022-11-15T14:25:18;11.60;99.90
20498;DHT22;10407;53.238;10.448;2022-11-15T14:28:11;11.50;99.90
20498;DHT22;10407;53.238;10.448;2022-11-15T14:30:40;11.50;99.90
20498;DHT22;10407;53.238;10.448;2022-11-15T14:33:27;11.50;99.90
20498;DHT22;10407;53.238;10.448;2022-11-15T14:35:56;11.40;99.90
20498;DHT22;10407;53.238;10.448;2022-11-15T14:38:24;11.40;99.90
20498;DHT22;10407;53.238;10.448;2022-11-15T14:40:53;11.40;99.90
20498;DHT22;10407;53.238;10.448;2022-11-15T14:43:22;11.40;99.90
20498;DHT22;10407;53.238;10.448;2022-11-15T14:45:49;11.40;99.90
20498;DHT22;10407;53.238;10.448;2022-11-15T14:48:17;11.40;99.90
20498;DHT22;10407;53.238;10.448;2022-11-15T14:50:45;11.30;99.90
20498;DHT22;10407;53.238;10.448;2022-11-15T14:53:14;11.30;99.90
20498;DHT22;10407;53.238;10.448;2022-11-15T14:55:43;11.30;99.90
20498;DHT22;10407;53.238;10.448;2022-11-15T14:58:11;11.20;99.90
20498;DHT22;10407;53.238;10.448;2022-11-15T15:00:40;11.20;99.90
20498;DHT22;10407;53.238;10.448;2022-11-15T15:03:08;11.10;99.90
20498;DHT22;10407;53.238;10.448;2022-11-15T15:05:42;11.10;99.90
20498;DHT22;10407;53.238;10.448;2022-11-15T15:08:10;11.10;99.90
20498;DHT22;10407;53.238;10.448;2022-11-15T15:10:43;10.90;99.90
20498;DHT22;10407;53.238;10.448;2022-11-15T15:13:23;10.90;99.90
20498;DHT22;10407;53.238;10.448;2022-11-15T15:15:51;10.80;99.90
20498;DHT22;10407;53.238;10.448;2022-11-15T15:18:19;10.90;99.90
20498;DHT22;10407;53.238;10.448;2022-11-15T15:20:56;10.80;99.90
20498;DHT22;10407;53.238;10.448;2022-11-15T15:23:20;10.80;99.90
20498;DHT22;10407;53.238;10.448;2022-11-15T15:25:50;10.90;99.90
20498;DHT22;10407;53.238;10.448;2022-11-15T15:28:19;10.80;99.90
20498;DHT22;10407;53.238;10.448;2022-11-15T15:30:46;10.80;99.90
20498;DHT22;10407;53.238;10.448;2022-11-15T15:33:16;10.80;99.90
20498;DHT22;10407;53.238;10.448;2022-11-15T15:35:43;10.70;99.90
20498;DHT22;10407;53.238;10.448;2022-11-15T15:38:14;10.70;99.90
20498;DHT22;10407;53.238;10.448;2022-11-15T15:40:42;10.70;99.90
20498;DHT22;10407;53.238;10.448;2022-11-15T15:43:09;10.70;99.90
20498;DHT22;10407;53.238;10.448;2022-11-15T15:45:39;10.70;99.90
20498;DHT22;10407;53.238;10.448;2022-11-15T15:48:12;10.70;99.90
20498;DHT22;10407;53.238;10.448;2022-11-15T15:50:40;10.70;99.90
20498;DHT22;10407;53.238;10.448;2022-11-15T15:53:09;10.80;99.90
20498;DHT22;10407;53.238;10.448;2022-11-15T15:55:38;10.80;99.90
20498;DHT22;10407;53.238;10.448;2022-11-15T15:58:05;10.70;99.90
20498;DHT22;10407;53.238;10.448;2022-11-15T16:00:34;10.70;99.90
20498;DHT22;10407;53.238;10.448;2022-11-15T16:03:02;10.70;99.90
20498;DHT22;10407;53.238;10.448;2022-11-15T16:05:29;10.70;99.90
20498;DHT22;10407;53.238;10.448;2022-11-15T16:07:57;10.70;99.90
20498;DHT22;10407;53.238;10.448;2022-11-15T16:10:27;10.70;99.90
20498;DHT22;10407;53.238;10.448;2022-11-15T16:12:56;10.60;99.90
20498;DHT22;10407;53.238;10.448;2022-11-15T16:15:26;10.60;99.90
20498;DHT22;10407;53.238;10.448;2022-11-15T16:17:56;10.60;99.90
20498;DHT22;10407;53.238;10.448;2022-11-15T16:20:43;10.60;99.90
20498;DHT22;10407;53.238;10.448;2022-11-15T16:23:13;10.60;99.90
20498;DHT22;10407;53.238;10.448;2022-11-15T16:25:54;10.60;99.90
20498;DHT22;10407;53.238;10.448;2022-11-15T16:31:10;10.60;99.90
20498;DHT22;10407;53.238;10.448;2022-11-15T16:33:38;10.60;99.90
20498;DHT22;10407;53.238;10.448;2022-11-15T16:36:23;10.70;99.90
20498;DHT22;10407;53.238;10.448;2022-11-15T16:38:51;10.70;99.90
20498;DHT22;10407;53.238;10.448;2022-11-15T16:41:19;10.70;99.90
20498;DHT22;10407;53.238;10.448;2022-11-15T16:43:50;10.70;99.90
20498;DHT22;10407;53.238;10.448;2022-11-15T16:46:19;10.70;99.90
20498;DHT22;10407;53.238;10.448;2022-11-15T16:48:48;10.70;99.90
20498;DHT22;10407;53.238;10.448;2022-11-15T16:51:16;10.70;99.90
20498;DHT22;10407;53.238;10.448;2022-11-15T16:53:44;10.70;99.90
20498;DHT22;10407;53.238;10.448;2022-11-15T16:56:25;10.70;99.90
20498;DHT22;10407;53.238;10.448;2022-11-15T16:58:57;10.70;99.90
20498;DHT22;10407;53.238;10.448;2022-11-15T17:01:27;10.70;99.90
20498;DHT22;10407;53.238;10.448;2022-11-15T17:03:56;10.70;99.90
20498;DHT22;10407;53.238;10.448;2022-11-15T17:06:25;10.70;99.90
20498;DHT22;10407;53.238;10.448;2022-11-15T17:08:53;10.70;99.90
20498;DHT22;10407;53.238;10.448;2022-11-15T17:11:22;10.70;99.90
20498;DHT22;10407;53.238;10.448;2022-11-15T17:13:49;10.70;99.90
20498;DHT22;10407;53.238;10.448;2022-11-15T17:16:18;10.70;99.90
20498;DHT22;10407;53.238;10.448;2022-11-15T17:18:49;10.70;99.90
20498;DHT22;10407;53.238;10.448;2022-11-15T17:21:19;10.80;99.90
20498;DHT22;10407;53.238;10.448;2022-11-15T17:23:47;10.80;99.90
20498;DHT22;10407;53.238;10.448;2022-11-15T17:26:16;10.70;99.90
20498;DHT22;10407;53.238;10.448;2022-11-15T17:28:43;10.70;99.90
20498;DHT22;10407;53.238;10.448;2022-11-15T17:31:12;10.80;99.90